Latest Coastal Weather Observations for Wilsons Promontory

IDV60701

Issued at 12:31 am EST Friday 29 July 2016 (issued every 10 minutes, with the page automatically refreshed every 10 minutes)

About coastal observations | Map of coastal stations | Coastal observations for VIC | Marine services | Other Formats
Station Details ID: 085096 Name: WILSONS PROMONTORY LIGHTHOUSE Lat: -39.13 Lon: 146.42 Height: 95.0 m
Data from the previous 72 hours. | See also: Recent months at Wilsons Promontory
Date/Time
EST
Temp
°C
Wind Pressure Rain since
9am
mm
Weather Cloud Vis
km
Sea
Height
m
Swell
Dir  Spd
kts
Gust
kts
hPa Trend Height
m
Period
s
Dir
29/12:30am 11.7 W 29 46 1015.8 - 6.6 - - - - - - -
29/12:00am 11.4 W 30 57 1015.8 - 6.6 - - - - - - -
 
Date/Time
EST
Temp
°C
Wind Pressure Rain since
9am
mm
Weather Cloud Vis
km
Sea
Height
m
Swell
Dir  Spd
kts
Gust
kts
hPa Trend Height
m
Period
s
Dir
28/11:51pm 11.5 W 30 57 1015.6 - 6.6 - - - - - - -
28/11:30pm 11.1 W 28 43 1016.1 - 6.4 - - - - - - -
28/11:00pm 11.0 W 26 49 1016.7 - 6.2 - - - - - - -
28/10:30pm 11.0 W 29 45 1016.6 - 5.6 - - - - - - -
28/10:00pm 11.6 W 30 49 1016.8 - 5.6 - - - - - - -
28/09:30pm 11.5 WNW 26 40 1017.6 - 5.6 - - - - - - -
28/09:00pm 11.2 W 23 40 1018.1 - 5.6 - - - - - - -
28/08:30pm 11.2 W 24 43 1018.5 - 5.6 - - - - - - -
28/08:00pm 11.7 WNW 21 37 1018.5 - 4.0 - - - - - - -
28/07:30pm 11.5 W 23 34 1018.3 - 4.0 - - - - - - -
28/07:00pm 11.9 W 27 41 1018.1 - 3.0 - - - - - - -
28/06:30pm 11.9 W 31 50 1017.0 - 3.0 - - - - - - -
28/06:00pm 11.8 W 35 55 1017.2 - 3.0 - - - - - - -
28/05:54pm 11.7 W 40 55 1016.8 - 3.0 - - - - - - -
28/05:30pm 11.7 W 29 46 1017.3 - 3.0 - - - - - - -
28/05:00pm 11.4 W 33 47 1016.9 - 2.8 - - - - - - -
28/04:30pm 11.7 W 28 47 1016.9 - 2.4 - - - - - - -
28/04:00pm 11.8 W 29 47 1016.7 - 2.4 - - - - - - -
28/03:45pm 11.7 W 21 40 1017.0 - 2.4 - - - - - - -
28/03:30pm 11.6 W 32 46 1016.7 - 2.4 - - - - - - -
28/03:00pm 11.4 W 35 54 1015.9 - 2.4 - - - - - - -
28/02:30pm 11.5 W 31 46 1015.9 - 2.4 - - - - - - -
28/02:00pm 11.5 W 33 50 1016.1 - 2.4 - - - - - - -
28/01:30pm 10.8 W 35 49 1015.9 - 2.4 - - - - - - -
28/01:05pm 10.7 W 37 53 1016.0 - 2.0 - - - - - - -
28/01:00pm 10.7 W 25 46 1016.8 - 2.0 - - - - - - -
28/12:59pm 10.7 W 24 47 1016.8 - 2.0 - - - - - - -
28/12:30pm 10.9 W 34 57 1016.3 - 1.4 - - - - - - -
28/12:28pm 10.7 W 34 57 1016.3 - 1.4 - - - - - - -
28/12:00pm 10.8 W 32 46 1016.8 - 1.2 - - - - - - -
28/11:30am 10.8 W 32 46 1017.4 - 1.2 - - - - - - -
28/11:00am 11.0 W 32 51 1016.9 - 0.8 - - - - - - -
28/10:30am 10.9 W 33 49 1017.3 - 0.6 - - - - - - -
28/10:00am 10.9 W 34 51 1016.8 - 0.2 - - - - - - -
28/09:30am 10.6 W 33 48 1017.2 - 0.2 - - - - - - -
28/09:00am 10.5 W 34 52 1017.0 - 19.4 - - - - - - -
28/08:30am 10.4 W 31 45 1017.0 - 19.0 - - - - - - -
28/08:00am 10.4 W 28 43 1017.0 - 18.4 - - - - - - -
28/07:30am 10.5 W 28 47 1017.0 - 17.4 - - - - - - -
28/07:00am 10.6 W 30 45 1016.3 - 17.2 - - - - - - -
28/06:30am 10.8 W 27 44 1016.4 - 16.8 - - - - - - -
28/06:00am 10.7 W 31 46 1016.2 - 16.8 - - - - - - -
28/05:30am 10.7 W 31 51 1015.1 - 16.4 - - - - - - -
28/05:00am 10.6 W 31 45 1014.9 - 16.4 - - - - - - -
28/04:30am 10.4 W 33 48 1014.6 - 16.2 - - - - - - -
28/04:00am 10.6 W 31 45 1015.1 - 14.2 - - - - - - -
28/03:30am 10.5 W 33 49 1014.8 - 14.0 - - - - - - -
28/03:00am 10.6 W 34 47 1015.3 - 13.6 - - - - - - -
28/02:30am 10.7 W 31 47 1015.8 - 12.4 - - - - - - -
28/02:00am 10.6 W 31 44 1015.7 - 11.4 - - - - - - -
28/01:30am 10.5 W 29 47 1015.8 - 9.8 - - - - - - -
28/01:00am 10.5 W 30 44 1015.7 - 8.4 - - - - - - -
28/12:30am 10.3 W 31 48 1015.5 - 7.0 - - - - - - -
28/12:00am 10.3 W 28 42 1015.6 - 4.6 - - - - - - -
 
Date/Time
EST
Temp
°C
Wind Pressure Rain since
9am
mm
Weather Cloud Vis
km
Sea
Height
m
Swell
Dir  Spd
kts
Gust
kts
hPa Trend Height
m
Period
s
Dir
27/11:30pm 10.2 W 30 47 1015.3 - 3.4 - - - - - - -
27/11:00pm 10.1 W 29 43 1015.8 - 3.0 - - - - - - -
27/10:48pm 10.4 W 26 43 1015.5 - 1.0 - - - - - - -
27/10:47pm 10.4 W 25 43 1015.6 - 1.0 - - - - - - -
27/10:30pm 10.6 W 35 50 1015.1 - 1.0 - - - - - - -
27/10:00pm 10.4 W 29 47 1015.4 - 0.4 - - - - - - -
27/09:30pm 10.5 W 32 47 1015.4 - 0.4 - - - - - - -
27/09:00pm 10.8 W 34 48 1015.0 - 0.2 - - - - - - -
27/08:30pm 10.3 W 35 53 1014.5 - 0.2 - - - - - - -
27/08:00pm 10.3 W 29 49 1014.8 - 0.2 - - - - - - -
27/07:30pm 10.1 W 30 43 1014.7 - 0.2 - - - - - - -
27/07:00pm 9.5 W 25 38 1014.4 - 0.2 - - - - - - -
27/06:30pm 9.1 W 30 43 1014.1 - 0.2 - - - - - - -
27/06:00pm 9.9 W 30 45 1013.5 - 0.0 - - - - - - -
27/05:30pm 9.4 W 28 43 1012.8 - 0.0 - - - - - - -
27/05:00pm 9.9 W 29 40 1012.4 - 0.0 - - - - - - -
27/04:36pm 10.0 W 33 43 1012.8 - 0.0 - - - - - - -
27/04:30pm 10.2 W 35 44 1012.0 - 0.0 - - - - - - -
27/04:11pm 9.9 W 40 51 1011.7 - 0.0 - - - - - - -
27/04:00pm 9.9 W 29 43 1012.2 - 0.0 - - - - - - -
27/03:30pm 9.0 W 29 43 1012.1 - 0.0 - - - - - - -
27/03:03pm 9.7 W 32 43 1011.5 - 0.0 - - - - - - -
27/03:00pm 9.9 W 31 40 1011.4 - 0.0 - - - - - - -
27/02:30pm 10.3 W 29 40 1011.2 - 0.0 - - - - - - -
27/02:00pm 10.1 W 30 43 1010.4 - 0.0 - - - - - - -
27/01:30pm 10.2 W 30 40 1010.7 - 0.0 - - - - - - -
27/01:00pm 10.4 W 27 39 1010.3 - 0.0 - - - - - - -
27/12:30pm 10.4 W 26 37 1010.5 - 0.0 - - - - - - -
27/12:00pm 10.2 W 21 31 1010.6 - 0.0 - - - - - - -
27/11:30am 9.9 W 29 40 1009.7 - 0.0 - - - - - - -
27/11:00am 9.2 W 23 38 1010.5 - 0.0 - - - - - - -
27/10:55am 9.1 W 21 38 1010.5 - 0.0 - - - - - - -
27/10:43am 9.9 WSW 33 43 1010.0 - 0.0 - - - - - - -
27/10:30am 9.7 WSW 37 44 1009.3 - 0.0 - - - - - - -
27/10:23am 10.1 WSW 36 46 1009.2 - 0.0 - - - - - - -
27/10:00am 9.6 SW 42 49 1008.7 - 0.0 - - - - - - -
27/09:44am 10.1 WSW 38 48 1008.0 - 0.0 - - - - - - -
27/09:30am 9.8 WSW 43 47 1007.7 - 0.0 - - - - - - -
27/09:00am 9.7 WSW 40 45 1007.0 - 10.0 - - - - - - -
27/08:33am 9.8 SW 38 48 1006.2 - 10.0 - - - - - - -
27/08:30am 9.7 SW 39 48 1005.7 - 10.0 - - - - - - -
27/08:00am 9.8 SW 39 48 1005.1 - 10.0 - - - - - - -
27/07:30am 9.9 SW 40 50 1003.8 - 10.0 - - - - - - -
27/07:17am 10.3 SW 40 50 1003.6 - 10.0 - - - - - - -
27/07:11am 9.8 WSW 41 45 1003.5 - 10.0 - - - - - - -
27/07:00am 9.4 W 26 45 1004.2 - 9.8 - - - - - - -
27/06:30am 9.6 W 24 39 1003.5 - 7.8 - - - - - - -
27/06:00am 9.9 W 21 32 1003.1 - 7.6 - - - - - - -
27/05:30am 9.6 WNW 29 41 1002.0 - 7.6 - - - - - - -
27/05:00am 9.6 WNW 30 45 1002.0 - 7.6 - - - - - - -
27/04:30am 9.6 WNW 27 47 1001.7 - 7.6 - - - - - - -
27/04:00am 9.5 WNW 30 43 1001.7 - 7.6 - - - - - - -
27/03:30am 9.4 W 29 44 1001.2 - 7.6 - - - - - - -
27/03:00am 9.4 WNW 30 52 1001.4 - 7.6 - - - - - - -
27/02:52am 9.4 WNW 27 52 1000.9 - 7.6 - - - - - - -
27/02:30am 9.4 WNW 22 41 1001.2 - 7.6 - - - - - - -
27/02:08am 9.5 WNW 20 41 1001.3 - 7.6 - - - - - - -
27/02:00am 9.3 WNW 12 32 1001.6 - 7.6 - - - - - - -
27/01:30am 9.3 NW 11 25 1001.6 - 7.6 - - - - - - -
27/01:03am 9.2 NW 15 28 1001.8 - 7.6 - - - - - - -
27/01:00am 9.2 NW 12 28 1002.2 - 7.6 - - - - - - -
27/12:46am 9.4 WNW 16 33 1002.1 - 7.6 - - - - - - -
27/12:30am 9.5 NNW 11 26 1002.3 - 7.6 - - - - - - -
27/12:07am 9.5 NNW 15 37 1002.3 - 7.6 - - - - - - -
27/12:00am 9.4 NNW 14 31 1002.5 - 7.6 - - - - - - -
 
Date/Time
EST
Temp
°C
Wind Pressure Rain since
9am
mm
Weather Cloud Vis
km
Sea
Height
m
Swell
Dir  Spd
kts
Gust
kts
hPa Trend Height
m
Period
s
Dir
26/11:47pm 9.2 NNW 15 35 1002.4 - 7.6 - - - - - - -
26/11:30pm 9.1 NNW 14 35 1002.8 - 7.6 - - - - - - -
26/11:00pm 9.1 NNW 19 43 1002.6 - 7.6 - - - - - - -
26/10:30pm 9.0 NNW 17 36 1002.8 - 7.6 - - - - - - -
26/10:12pm 9.0 NNW 16 46 1002.9 - 7.6 - - - - - - -
26/10:00pm 8.9 NNW 15 35 1003.2 - 7.6 - - - - - - -
26/09:30pm 8.8 NNW 18 43 1003.5 - 7.6 - - - - - - -
26/09:00pm 8.7 NNW 19 42 1004.0 - 7.6 - - - - - - -
26/08:30pm 8.6 NNW 19 35 1003.8 - 7.6 - - - - - - -
26/08:02pm 8.6 N 15 30 1004.3 - 7.6 - - - - - - -
26/08:00pm 8.7 N 13 30 1004.3 - 7.6 - - - - - - -
26/07:30pm 8.4 NNW 15 39 1004.6 - 7.6 - - - - - - -
26/07:00pm 8.3 NNW 16 30 1004.7 - 7.6 - - - - - - -
26/06:30pm 8.3 NE 6 11 1004.8 - 7.6 - - - - - - -
26/06:00pm 8.3 NNW 6 14 1005.4 - 7.6 - - - - - - -
26/05:30pm 8.4 WNW 10 16 1005.0 - 7.6 - - - - - - -
26/05:00pm 8.5 NNW 8 16 1005.5 - 7.6 - - - - - - -
26/04:30pm 8.4 W 6 15 1005.7 - 7.6 - - - - - - -
26/04:00pm 8.5 NNW 8 24 1005.9 - 7.6 - - - - - - -
26/03:33pm 8.7 WNW 15 32 1006.2 - 7.6 - - - - - - -
26/03:30pm 8.7 NNW 10 25 1006.3 - 7.6 - - - - - - -
26/03:00pm 8.7 N 6 16 1006.5 - 7.6 - - - - - - -
26/02:41pm 8.8 WNW 15 32 1006.5 - 7.6 - - - - - - -
26/02:30pm 8.7 NNE 9 31 1006.6 - 7.6 - - - - - - -
26/02:01pm 8.5 WNW 15 35 1006.9 - 7.6 - - - - - - -
26/02:00pm 8.6 WNW 13 33 1007.0 - 7.6 - - - - - - -
26/01:30pm 8.4 W 19 44 1006.6 - 7.6 - - - - - - -
26/01:23pm 8.4 WNW 19 44 1006.8 - 7.6 - - - - - - -
26/01:06pm 8.2 WNW 15 31 1007.2 - 7.6 - - - - - - -
26/01:00pm 8.1 SW 10 27 1007.2 - 7.6 - - - - - - -
26/12:31pm 8.0 WNW 19 34 1007.3 - 7.6 - - - - - - -
26/12:30pm 8.0 NNW 14 34 1007.3 - 7.6 - - - - - - -
26/12:11pm 7.1 W 17 37 1007.9 - 7.6 - - - - - - -
26/12:08pm 6.8 W 18 42 1007.9 - 7.4 - - - - - - -
26/12:00pm 6.3 W 31 42 1007.6 - 7.2 - - - - - - -
26/11:59am 6.5 W 33 42 1007.5 - 7.0 - - - - - - -
26/11:57am 6.8 WSW 19 37 1007.7 - 7.0 - - - - - - -
26/11:55am 7.4 WSW 16 26 1008.3 - 6.8 - - - - - - -
26/11:30am 7.6 E 6 36 1008.3 - 6.2 - - - - - - -
26/11:25am 7.6 W 16 36 1007.9 - 6.2 - - - - - - -
26/11:00am 6.7 WNW 13 22 1008.2 - 6.2 - - - - - - -
26/10:40am 7.0 WNW 15 33 1008.0 - 4.6 - - - - - - -
26/10:30am 7.2 WNW 12 31 1008.2 - 3.8 - - - - - - -
26/10:06am 7.0 WNW 23 44 1007.3 - 3.0 - - - - - - -
26/10:00am 7.7 WNW 19 33 1007.4 - 2.0 - - - - - - -
26/09:30am 7.7 WNW 27 45 1007.1 - 2.0 - - - - - - -
26/09:23am 7.4 WNW 29 40 1007.0 - 2.0 - - - - - - -
26/09:07am 7.9 W 28 39 1007.1 - 0.4 - - - - - - -
26/09:06am 7.9 W 30 39 1006.8 - 0.4 - - - - - - -
26/09:00am 7.6 W 19 35 1007.3 - 30.0 - - - - - - -
26/08:38am 8.6 W 24 44 1006.7 - 29.6 - - - - - - -
26/08:37am 8.9 W 23 44 1006.9 - 29.6 - - - - - - -
26/08:32am 9.4 W 34 44 1006.5 - 29.6 - - - - - - -
26/08:30am 9.3 W 24 43 1006.4 - 29.6 - - - - - - -
26/08:21am 8.8 W 20 41 1006.7 - 29.6 - - - - - - -
26/08:05am 8.8 W 34 44 1006.0 - 29.6 - - - - - - -
26/08:04am 8.6 W 34 43 1006.1 - 29.6 - - - - - - -
26/08:03am 8.6 W 22 42 1006.3 - 29.6 - - - - - - -
26/08:00am 8.3 W 21 31 1006.6 - 29.6 - - - - - - -
26/07:31am 8.4 W 25 41 1005.8 - 29.6 - - - - - - -
26/07:30am 8.2 W 23 41 1006.1 - 29.6 - - - - - - -
26/07:29am 8.2 W 23 41 1006.1 - 29.6 - - - - - - -
26/07:14am 7.0 W 33 59 1005.5 - 29.4 - - - - - - -
26/07:10am 7.0 W 45 59 1004.6 - 29.2 - - - - - - -
26/07:00am 6.9 W 33 49 1005.1 - 29.0 - - - - - - -
26/06:30am 8.3 W 30 43 1004.4 - 28.6 - - - - - - -
26/06:00am 7.3 W 24 43 1004.7 - 28.6 - - - - - - -
26/05:57am 7.1 W 25 48 1004.4 - 28.6 - - - - - - -
26/05:56am 7.0 W 23 48 1004.7 - 28.6 - - - - - - -
26/05:52am 6.9 W 37 48 1004.1 - 28.6 - - - - - - -
26/05:49am 7.1 W 39 48 1003.3 - 28.4 - - - - - - -
26/05:41am 7.7 W 25 50 1004.2 - 27.8 - - - - - - -
26/05:39am 7.6 W 26 50 1004.2 - 27.8 - - - - - - -
26/05:35am 8.0 W 39 50 1003.3 - 27.8 - - - - - - -
26/05:30am 8.6 W 26 40 1004.1 - 27.8 - - - - - - -
26/05:00am 7.0 W 31 51 1003.5 - 27.8 - - - - - - -
26/04:50am 6.8 W 30 51 1003.0 - 27.4 - - - - - - -
26/04:30am 7.8 W 25 38 1003.1 - 25.8 - - - - - - -
26/04:00am 7.3 W 27 47 1002.6 - 25.8 - - - - - - -
26/03:30am 7.5 W 28 41 1002.6 - 25.4 - - - - - - -
26/03:00am 6.7 W 28 46 1002.6 - 25.4 - - - - - - -
26/02:30am 6.2 W 34 52 1001.5 - 24.2 - - - - - - -
26/02:15am 5.1 W 28 56 1002.4 - 23.6 - - - - - - -
26/02:06am 5.3 W 42 57 1001.2 - 20.4 - - - - - - -
26/02:00am 7.8 W 24 47 1002.0 - 19.4 - - - - - - -
26/01:58am 7.8 W 25 57 1001.8 - 19.4 - - - - - - -
26/01:57am 7.8 W 23 57 1002.0 - 19.4 - - - - - - -
26/01:52am 8.1 W 34 59 1001.3 - 19.4 - - - - - - -
26/01:45am 7.7 W 45 59 1000.5 - 19.4 - - - - - - -
26/01:30am 6.3 W 25 50 1001.7 - 19.0 - - - - - - -
26/01:21am 6.1 W 27 67 1001.9 - 18.0 - - - - - - -
26/01:16am 5.9 W 31 67 1001.9 - 17.6 - - - - - - -
26/01:13am 6.8 W 45 67 1000.0 - 16.6 - - - - - - -
26/01:00am 8.0 WNW 22 41 1001.2 - 15.6 - - - - - - -

Other Formats:

Comma delimited format used in spreadsheet applications
http://www.bom.gov.au/fwo/IDV60701/IDV60701.94893.axf

JavaScript Object Notation format (JSON) in row-major order
http://www.bom.gov.au/fwo/IDV60701/IDV60701.94893.json